createdAt,value
2022-11-24T00:01:15.780Z,4.80
2022-11-24T00:03:44.971Z,4.45
2022-11-24T00:06:14.673Z,4.13
2022-11-24T00:08:44.579Z,3.90
2022-11-24T00:11:18.128Z,4.57
2022-11-24T00:13:45.901Z,5.00
2022-11-24T00:16:19.573Z,4.20
2022-11-24T00:18:49.292Z,4.43
2022-11-24T00:21:18.168Z,4.20
2022-11-24T00:23:46.610Z,4.70
2022-11-24T00:26:19.981Z,4.68
2022-11-24T00:28:49.444Z,4.68
2022-11-24T00:31:19.976Z,4.18
2022-11-24T00:33:48.870Z,4.30
2022-11-24T00:36:17.667Z,4.30
2022-11-24T00:38:45.845Z,4.55
2022-11-24T00:41:13.924Z,4.63
2022-11-24T00:43:41.368Z,4.53
2022-11-24T00:46:08.846Z,4.25
2022-11-24T00:48:36.364Z,4.43
2022-11-24T00:51:09.220Z,4.03
2022-11-24T00:53:37.290Z,4.82
2022-11-24T00:56:05.290Z,4.60
2022-11-24T00:58:33.536Z,5.38
2022-11-24T01:01:28.485Z,4.03
2022-11-24T01:03:56.737Z,3.97
2022-11-24T01:06:26.397Z,4.85
2022-11-24T01:08:54.947Z,4.57
2022-11-24T01:11:25.444Z,4.70
2022-11-24T01:13:58.798Z,4.05
2022-11-24T01:16:33.359Z,5.10
2022-11-24T01:19:01.321Z,4.72
2022-11-24T01:21:28.781Z,4.00
2022-11-24T01:23:56.346Z,4.30
2022-11-24T01:26:23.855Z,6.40
2022-11-24T01:28:55.928Z,4.68
2022-11-24T01:31:24.205Z,4.80
2022-11-24T01:33:52.384Z,5.50
2022-11-24T01:36:20.270Z,4.55
2022-11-24T01:38:47.692Z,4.47
2022-11-24T01:41:20.825Z,5.20
2022-11-24T01:43:48.875Z,4.85
2022-11-24T01:46:45.595Z,4.18
2022-11-24T01:49:20.422Z,4.40
2022-11-24T01:52:26.747Z,3.78
2022-11-24T01:55:00.868Z,4.90
2022-11-24T01:57:34.883Z,4.30
2022-11-24T02:00:07.485Z,4.30
2022-11-24T02:02:45.649Z,4.15
2022-11-24T02:05:18.600Z,3.90
2022-11-24T02:07:46.922Z,3.70
2022-11-24T02:10:16.260Z,3.88
2022-11-24T02:12:49.162Z,3.80
2022-11-24T02:15:18.911Z,3.55
2022-11-24T02:17:46.474Z,4.18
2022-11-24T02:20:14.824Z,4.00
2022-11-24T02:22:57.009Z,3.92
2022-11-24T02:25:43.057Z,4.43
2022-11-24T02:28:14.643Z,3.75
2022-11-24T02:30:42.107Z,3.70
2022-11-24T02:33:11.178Z,3.88
2022-11-24T02:35:38.853Z,3.28
2022-11-24T02:38:06.505Z,2.90
2022-11-24T02:40:34.131Z,3.00
2022-11-24T02:43:08.113Z,2.95
2022-11-24T02:45:35.671Z,2.65
2022-11-24T02:48:03.071Z,2.63
2022-11-24T02:50:30.512Z,2.50
2022-11-24T02:52:57.906Z,2.50
2022-11-24T02:55:25.696Z,2.42
2022-11-24T02:57:53.229Z,2.90
2022-11-24T03:00:20.952Z,2.40
2022-11-24T03:02:48.530Z,2.42
2022-11-24T03:05:16.154Z,2.67
2022-11-24T03:07:43.657Z,2.42
2022-11-24T03:10:11.524Z,3.13
2022-11-24T03:12:39.021Z,3.03
2022-11-24T03:15:07.337Z,2.38
2022-11-24T03:17:34.677Z,2.42
2022-11-24T03:20:04.958Z,2.90
2022-11-24T03:25:02.343Z,2.50
2022-11-24T03:27:31.571Z,2.40
2022-11-24T03:29:59.008Z,2.20
2022-11-24T03:32:26.367Z,2.42
2022-11-24T03:34:53.840Z,2.40
2022-11-24T03:37:21.306Z,2.22
2022-11-24T03:39:49.450Z,2.08
2022-11-24T03:42:17.012Z,2.25
2022-11-24T03:44:44.412Z,2.47
2022-11-24T03:47:12.730Z,2.50
2022-11-24T03:49:41.658Z,2.10
2022-11-24T03:52:09.597Z,2.47
2022-11-24T03:54:37.133Z,2.65
2022-11-24T03:57:04.667Z,2.10
2022-11-24T03:59:32.024Z,2.60
2022-11-24T04:01:59.506Z,2.63
2022-11-24T04:04:27.196Z,2.58
2022-11-24T04:06:54.779Z,2.58
2022-11-24T04:09:22.397Z,2.22
2022-11-24T04:12:08.177Z,2.50
2022-11-24T04:14:36.212Z,2.08
2022-11-24T04:17:05.007Z,2.50
2022-11-24T04:19:32.535Z,2.10
2022-11-24T04:22:00.112Z,2.70
2022-11-24T04:24:27.738Z,2.50
2022-11-24T04:26:55.014Z,2.38
2022-11-24T04:29:22.394Z,2.35
2022-11-24T04:31:49.767Z,2.13
2022-11-24T04:34:17.112Z,2.00
2022-11-24T04:36:44.403Z,2.50
2022-11-24T04:39:24.893Z,2.50
2022-11-24T04:41:53.697Z,2.42
2022-11-24T04:44:21.020Z,2.88
2022-11-24T04:46:48.717Z,2.55
2022-11-24T04:49:16.031Z,2.03
2022-11-24T04:51:43.459Z,2.38
2022-11-24T04:54:12.974Z,2.40
2022-11-24T04:56:41.988Z,2.25
2022-11-24T04:59:16.403Z,2.60
2022-11-24T05:01:45.264Z,2.20
2022-11-24T05:04:15.274Z,1.95
2022-11-24T05:06:43.297Z,2.55
2022-11-24T05:09:16.096Z,2.08
2022-11-24T05:11:44.111Z,2.60
2022-11-24T05:14:11.655Z,1.85
2022-11-24T05:16:39.016Z,2.53
2022-11-24T05:19:06.390Z,2.78
2022-11-24T05:21:33.706Z,2.20
2022-11-24T05:24:01.149Z,2.47
2022-11-24T05:26:28.436Z,2.10
2022-11-24T05:28:55.865Z,2.28
2022-11-24T05:31:23.405Z,2.78
2022-11-24T05:33:51.032Z,2.22
2022-11-24T05:36:36.870Z,1.83
2022-11-24T05:39:04.353Z,2.28
2022-11-24T05:41:31.647Z,2.05
2022-11-24T05:43:58.955Z,2.40
2022-11-24T05:46:27.017Z,2.05
2022-11-24T05:48:54.326Z,2.70
2022-11-24T05:51:21.686Z,2.20
2022-11-24T05:53:49.116Z,2.58
2022-11-24T05:56:16.479Z,2.25
2022-11-24T05:58:44.688Z,2.30
2022-11-24T06:01:12.097Z,2.47
2022-11-24T06:03:39.581Z,2.22
2022-11-24T06:06:07.176Z,2.10
2022-11-24T06:08:34.655Z,2.30
2022-11-24T06:11:17.419Z,2.33
2022-11-24T06:13:46.370Z,3.17
2022-11-24T06:16:14.411Z,1.90
2022-11-24T06:18:41.876Z,2.00
2022-11-24T06:21:11.115Z,2.65
2022-11-24T06:23:39.630Z,2.42
2022-11-24T06:26:07.341Z,2.05
2022-11-24T06:28:34.725Z,2.22
2022-11-24T06:31:03.812Z,2.65
2022-11-24T06:33:35.409Z,2.58
2022-11-24T06:36:04.983Z,2.28
2022-11-24T06:38:32.885Z,2.67
2022-11-24T06:41:10.410Z,2.78
2022-11-24T06:43:37.895Z,2.53
2022-11-24T06:46:05.950Z,5.32
2022-11-24T06:48:33.449Z,3.45
2022-11-24T06:51:02.205Z,2.78
2022-11-24T06:53:37.963Z,3.25
2022-11-24T06:56:10.733Z,2.88
2022-11-24T06:58:42.808Z,3.17
2022-11-24T07:01:14.557Z,2.97
2022-11-24T07:03:42.225Z,3.33
2022-11-24T07:06:09.602Z,3.35
2022-11-24T07:08:36.964Z,3.13
2022-11-24T07:11:06.389Z,3.00
2022-11-24T07:13:34.017Z,2.67
2022-11-24T07:16:10.535Z,2.70
2022-11-24T07:18:37.856Z,2.88
2022-11-24T07:21:05.796Z,2.25
2022-11-24T07:23:33.616Z,2.42
2022-11-24T07:26:06.965Z,2.80
2022-11-24T07:28:36.807Z,2.33
2022-11-24T07:31:10.714Z,2.63
2022-11-24T07:33:38.545Z,2.20
2022-11-24T07:36:07.551Z,2.72
2022-11-24T07:38:36.184Z,2.47
2022-11-24T07:41:09.047Z,3.10
2022-11-24T07:43:37.957Z,2.40
2022-11-24T07:46:07.532Z,2.60
2022-11-24T07:48:35.173Z,2.60
2022-11-24T07:51:06.137Z,2.58
2022-11-24T07:53:34.277Z,2.78
2022-11-24T07:56:05.730Z,2.83
2022-11-24T07:58:36.348Z,2.42
2022-11-24T08:01:15.328Z,3.08
2022-11-24T08:03:43.691Z,2.80
2022-11-24T08:06:32.580Z,2.75
2022-11-24T08:08:59.518Z,2.45
2022-11-24T08:11:27.469Z,2.85
2022-11-24T08:13:54.716Z,3.00
2022-11-24T08:16:22.319Z,2.90
2022-11-24T08:18:55.007Z,2.58
2022-11-24T08:23:56.997Z,2.70
2022-11-24T08:26:25.505Z,2.80
2022-11-24T08:28:57.867Z,2.92
2022-11-24T08:31:34.037Z,3.50
2022-11-24T08:34:03.735Z,2.88
2022-11-24T08:36:32.127Z,2.95
2022-11-24T08:39:00.764Z,3.13
2022-11-24T08:41:29.039Z,3.10
2022-11-24T08:43:56.893Z,3.60
2022-11-24T08:46:24.434Z,3.72
2022-11-24T08:48:54.073Z,3.22
2022-11-24T08:51:24.344Z,3.42
2022-11-24T08:53:56.029Z,3.67
2022-11-24T08:56:23.510Z,3.38
2022-11-24T08:58:51.137Z,3.10
2022-11-24T09:01:19.218Z,2.95
2022-11-24T09:03:51.050Z,3.00
2022-11-24T09:06:25.225Z,3.45
2022-11-24T09:08:54.656Z,3.00
2022-11-24T09:11:22.807Z,3.10
2022-11-24T09:13:50.430Z,3.20
2022-11-24T09:16:20.973Z,3.50
2022-11-24T09:18:54.258Z,3.47
2022-11-24T09:21:24.204Z,3.40
2022-11-24T09:23:53.408Z,3.00
2022-11-24T09:26:23.294Z,3.90
2022-11-24T09:28:54.771Z,3.58
2022-11-24T09:31:25.081Z,3.50
2022-11-24T09:33:53.653Z,3.78
2022-11-24T09:36:21.921Z,3.53
2022-11-24T09:38:49.707Z,3.50
2022-11-24T09:41:32.678Z,3.72
2022-11-24T09:44:39.106Z,3.05
2022-11-24T09:47:06.475Z,3.15
2022-11-24T09:49:56.016Z,3.50
2022-11-24T09:52:49.091Z,3.17
2022-11-24T09:57:59.902Z,2.90
2022-11-24T10:00:27.226Z,3.10
2022-11-24T10:02:54.623Z,4.63
2022-11-24T10:05:26.121Z,4.07
2022-11-24T10:08:09.620Z,5.60
2022-11-24T10:10:55.010Z,4.65
2022-11-24T10:13:50.526Z,4.18
2022-11-24T10:16:17.895Z,4.57
2022-11-24T10:18:48.022Z,6.28
2022-11-24T10:21:15.346Z,5.95
2022-11-24T10:23:45.432Z,5.65
2022-11-24T10:26:37.355Z,4.45
2022-11-24T10:29:14.023Z,3.22
2022-11-24T10:31:44.916Z,3.22
2022-11-24T10:34:18.268Z,3.10
2022-11-24T10:37:16.404Z,2.75
2022-11-24T10:40:40.484Z,2.40
2022-11-24T10:43:10.463Z,2.78
2022-11-24T10:45:39.680Z,2.38
2022-11-24T10:48:17.793Z,3.00
2022-11-24T10:50:45.944Z,2.83
2022-11-24T10:53:26.937Z,3.63
2022-11-24T10:55:57.043Z,2.90
2022-11-24T10:58:34.445Z,3.03
2022-11-24T11:01:14.230Z,3.47
2022-11-24T11:04:00.120Z,3.50
2022-11-24T11:06:28.543Z,3.92
2022-11-24T11:09:22.983Z,3.15
2022-11-24T11:11:54.025Z,3.33
2022-11-24T11:14:34.181Z,2.92
2022-11-24T11:17:02.350Z,2.80
2022-11-24T11:19:56.911Z,2.97
2022-11-24T11:22:33.389Z,2.40
2022-11-24T11:25:07.466Z,2.30
2022-11-24T11:27:34.882Z,2.65
2022-11-24T11:36:11.993Z,3.42
2022-11-24T11:38:40.798Z,3.03
2022-11-24T11:41:18.127Z,3.50
2022-11-24T11:43:47.363Z,2.42
2022-11-24T11:46:17.075Z,2.45
2022-11-24T11:48:47.132Z,3.00
2022-11-24T11:51:39.354Z,2.40
2022-11-24T11:54:25.930Z,2.00
2022-11-24T11:57:31.938Z,2.35
2022-11-24T12:00:11.899Z,2.50
2022-11-24T12:02:49.961Z,2.45
2022-11-24T12:05:31.363Z,2.47
2022-11-24T12:08:21.119Z,2.28
2022-11-24T12:11:05.703Z,3.03
2022-11-24T12:14:12.285Z,2.40
2022-11-24T12:16:39.605Z,2.30
2022-11-24T12:19:23.982Z,2.83
2022-11-24T12:22:13.071Z,2.80
2022-11-24T12:24:52.473Z,2.67
2022-11-24T12:27:47.577Z,4.43
2022-11-24T12:30:18.292Z,3.45
2022-11-24T12:33:05.405Z,4.40
2022-11-24T12:35:49.141Z,3.30
2022-11-24T12:38:36.648Z,4.28
2022-11-24T12:41:43.657Z,4.63
2022-11-24T12:44:44.724Z,3.50
2022-11-24T12:47:27.479Z,2.60
2022-11-24T12:50:12.963Z,2.80
2022-11-24T12:52:57.220Z,2.03
2022-11-24T12:55:28.069Z,2.20
2022-11-24T12:58:17.266Z,2.17
2022-11-24T13:01:02.627Z,2.67
2022-11-24T13:03:36.544Z,2.42
2022-11-24T13:06:19.423Z,2.30
2022-11-24T13:11:23.335Z,4.10
2022-11-24T13:14:02.874Z,2.28
2022-11-24T13:16:48.521Z,2.88
2022-11-24T13:19:21.798Z,3.70
2022-11-24T13:21:59.937Z,8.82
2022-11-24T13:24:30.970Z,3.58
2022-11-24T13:27:17.321Z,2.92
2022-11-24T13:29:49.882Z,2.85
2022-11-24T13:32:21.365Z,4.15
2022-11-24T13:34:50.084Z,4.20
2022-11-24T13:37:26.454Z,4.28
2022-11-24T13:40:01.300Z,4.45
2022-11-24T13:42:41.835Z,2.60
2022-11-24T13:45:41.064Z,2.50
2022-11-24T13:48:21.628Z,2.25
2022-11-24T13:50:55.163Z,1.92
2022-11-24T13:53:27.018Z,7.50
2022-11-24T13:56:24.656Z,3.75
2022-11-24T13:59:01.578Z,2.22
2022-11-24T14:01:33.608Z,3.10
2022-11-24T14:04:43.200Z,2.50
2022-11-24T14:07:14.651Z,2.40
2022-11-24T14:09:48.095Z,1.90
2022-11-24T14:12:15.732Z,2.65
2022-11-24T14:14:44.727Z,2.60
2022-11-24T14:17:24.217Z,2.08
2022-11-24T14:19:54.093Z,2.00
2022-11-24T14:22:26.924Z,2.47
2022-11-24T14:24:59.604Z,2.10
2022-11-24T14:27:38.202Z,2.10
2022-11-24T14:30:13.603Z,2.58
2022-11-24T14:32:42.572Z,2.08
2022-11-24T14:35:33.326Z,2.38
2022-11-24T14:38:03.252Z,2.30
2022-11-24T14:40:46.175Z,2.15
2022-11-24T14:46:09.578Z,2.05
2022-11-24T14:48:47.217Z,2.40
2022-11-24T14:51:24.121Z,2.47
2022-11-24T14:53:54.031Z,2.40
2022-11-24T14:56:29.873Z,2.38
2022-11-24T14:58:59.050Z,2.47
2022-11-24T15:01:32.790Z,2.50
2022-11-24T15:04:26.668Z,3.05
2022-11-24T15:07:18.978Z,2.97
2022-11-24T15:09:52.756Z,2.70
2022-11-24T15:12:29.122Z,2.55
2022-11-24T15:15:20.813Z,3.15
2022-11-24T15:17:55.123Z,2.47
2022-11-24T15:20:25.262Z,2.65
2022-11-24T15:23:12.558Z,3.30
2022-11-24T15:25:40.020Z,2.20
2022-11-24T15:28:09.076Z,2.30
2022-11-24T15:30:37.663Z,2.70
2022-11-24T15:33:17.001Z,2.30
2022-11-24T15:35:45.386Z,2.35
2022-11-24T15:38:14.604Z,2.80
2022-11-24T15:40:45.573Z,2.25
2022-11-24T15:43:31.416Z,2.35
2022-11-24T15:46:00.190Z,2.50
2022-11-24T15:48:28.208Z,2.50
2022-11-24T15:50:57.615Z,2.58
2022-11-24T15:53:32.975Z,2.97
2022-11-24T15:56:02.582Z,2.85
2022-11-24T15:58:29.911Z,3.17
2022-11-24T16:00:57.403Z,3.03
2022-11-24T16:03:46.409Z,2.88
2022-11-24T16:06:23.709Z,2.92
2022-11-24T16:08:53.222Z,3.20
2022-11-24T16:11:20.974Z,3.05
2022-11-24T16:13:52.329Z,2.80
2022-11-24T16:16:21.640Z,2.55
2022-11-24T16:18:49.082Z,2.83
2022-11-24T16:21:16.361Z,2.92
2022-11-24T16:23:43.839Z,2.97
2022-11-24T16:26:11.214Z,2.40
2022-11-24T16:28:38.557Z,2.88
2022-11-24T16:31:06.161Z,2.63
2022-11-24T16:33:33.671Z,2.58
2022-11-24T16:36:00.918Z,2.92
2022-11-24T16:38:28.214Z,2.58
2022-11-24T16:40:59.380Z,2.60
2022-11-24T16:43:29.340Z,2.47
2022-11-24T16:46:20.548Z,2.83
2022-11-24T16:48:50.527Z,2.38
2022-11-24T16:51:19.854Z,2.20
2022-11-24T16:53:47.945Z,2.95
2022-11-24T16:56:16.713Z,2.70
2022-11-24T16:58:43.962Z,2.90
2022-11-24T17:01:13.700Z,2.72
2022-11-24T17:03:41.494Z,2.60
2022-11-24T17:06:15.939Z,2.80
2022-11-24T17:08:45.077Z,2.75
2022-11-24T17:11:18.519Z,2.72
2022-11-24T17:13:47.194Z,2.80
2022-11-24T17:16:16.814Z,2.47
2022-11-24T17:18:44.885Z,2.78
2022-11-24T17:21:15.042Z,3.03
2022-11-24T17:23:43.171Z,2.72
2022-11-24T17:26:18.181Z,2.60
2022-11-24T17:28:45.778Z,2.88
2022-11-24T17:31:18.155Z,2.65
2022-11-24T17:33:45.830Z,2.80
2022-11-24T17:36:13.188Z,3.05
2022-11-24T17:38:40.566Z,2.95
2022-11-24T17:41:08.779Z,3.10
2022-11-24T17:43:36.259Z,3.20
2022-11-24T17:46:04.892Z,2.83
2022-11-24T17:48:33.106Z,2.97
2022-11-24T17:51:03.462Z,3.50
2022-11-24T17:53:31.570Z,3.65
2022-11-24T17:56:00.552Z,3.80
2022-11-24T17:58:29.066Z,3.20
2022-11-24T18:00:58.233Z,3.08
2022-11-24T18:03:28.946Z,3.45
2022-11-24T18:05:56.436Z,3.13
2022-11-24T18:08:24.305Z,3.00
2022-11-24T18:10:51.527Z,2.95
2022-11-24T18:13:48.481Z,3.25
2022-11-24T18:16:08.996Z,3.15
2022-11-24T18:18:40.215Z,2.80
2022-11-24T18:21:12.785Z,3.05
2022-11-24T18:23:40.748Z,2.60
2022-11-24T18:26:08.423Z,3.17
2022-11-24T18:28:35.994Z,3.50
2022-11-24T18:31:06.650Z,3.28
2022-11-24T18:33:37.886Z,2.97
2022-11-24T18:36:07.136Z,3.03
2022-11-24T18:38:39.042Z,2.85
2022-11-24T18:41:07.502Z,2.85
2022-11-24T18:43:37.906Z,3.38
2022-11-24T18:46:13.845Z,3.03
2022-11-24T18:48:42.380Z,3.05
2022-11-24T18:51:14.924Z,2.92
2022-11-24T18:53:43.724Z,2.67
2022-11-24T18:56:17.424Z,2.92
2022-11-24T18:58:45.283Z,3.10
2022-11-24T19:01:18.534Z,3.20
2022-11-24T19:03:49.240Z,3.15
2022-11-24T19:06:36.760Z,3.35
2022-11-24T19:09:15.799Z,2.95
2022-11-24T19:11:44.741Z,2.90
2022-11-24T19:14:15.093Z,3.00
2022-11-24T19:16:43.303Z,3.17
2022-11-24T19:19:12.515Z,3.00
2022-11-24T19:21:40.625Z,3.00
2022-11-24T19:24:16.029Z,3.10
2022-11-24T19:26:43.540Z,3.70
2022-11-24T19:29:11.100Z,2.85
2022-11-24T19:31:39.901Z,3.47
2022-11-24T19:34:08.463Z,3.13
2022-11-24T19:36:37.569Z,3.15
2022-11-24T19:39:05.452Z,2.72
2022-11-24T19:41:33.727Z,3.53
2022-11-24T19:44:01.252Z,3.22
2022-11-24T19:46:29.982Z,3.63
2022-11-24T19:49:00.953Z,3.78
2022-11-24T19:51:31.843Z,3.35
2022-11-24T19:54:00.120Z,3.10
2022-11-24T19:56:31.497Z,2.67
2022-11-24T19:58:58.857Z,3.15
2022-11-24T20:01:28.640Z,3.08
2022-11-24T20:04:01.411Z,3.10
2022-11-24T20:08:58.982Z,3.00
2022-11-24T20:11:27.606Z,3.40
2022-11-24T20:13:55.376Z,3.58
2022-11-24T20:16:29.862Z,3.10
2022-11-24T20:19:00.445Z,3.00
2022-11-24T20:21:31.658Z,3.00
2022-11-24T20:24:01.925Z,3.15
2022-11-24T20:26:33.551Z,3.38
2022-11-24T20:29:01.240Z,3.00
2022-11-24T20:31:37.336Z,3.20
2022-11-24T20:34:07.309Z,3.35
2022-11-24T20:36:37.032Z,3.40
2022-11-24T20:39:14.530Z,3.15
2022-11-24T20:41:42.471Z,3.22
2022-11-24T20:44:13.873Z,3.05
2022-11-24T20:46:44.234Z,2.90
2022-11-24T20:49:14.609Z,3.17
2022-11-24T20:51:44.323Z,3.42
2022-11-24T20:54:15.689Z,3.35
2022-11-24T20:56:46.722Z,2.80
2022-11-24T20:59:16.193Z,3.40
2022-11-24T21:01:45.633Z,3.45
2022-11-24T21:04:19.203Z,3.35
2022-11-24T21:06:47.025Z,3.10
2022-11-24T21:09:14.482Z,3.15
2022-11-24T21:11:42.355Z,2.63
2022-11-24T21:14:11.041Z,2.80
2022-11-24T21:16:40.719Z,2.67
2022-11-24T21:19:15.293Z,3.63
2022-11-24T21:21:43.097Z,2.92
2022-11-24T21:24:13.700Z,2.75
2022-11-24T21:26:42.201Z,2.83
2022-11-24T21:29:15.604Z,2.60
2022-11-24T21:31:43.237Z,2.90
2022-11-24T21:34:15.351Z,2.58
2022-11-24T21:36:45.231Z,2.75
2022-11-24T21:39:14.116Z,2.65
2022-11-24T21:41:41.905Z,2.97
2022-11-24T21:44:11.953Z,2.22
2022-11-24T21:46:44.929Z,2.67
2022-11-24T21:49:17.000Z,2.83
2022-11-24T21:51:44.336Z,2.90
2022-11-24T21:54:11.790Z,2.20
2022-11-24T21:56:39.191Z,2.33
2022-11-24T21:59:06.641Z,2.47
2022-11-24T22:01:34.057Z,2.40
2022-11-24T22:04:01.571Z,2.47
2022-11-24T22:06:28.881Z,2.58
2022-11-24T22:08:56.273Z,2.45
2022-11-24T22:11:25.675Z,2.78
2022-11-24T22:13:53.941Z,2.85
2022-11-24T22:16:24.003Z,2.17
2022-11-24T22:18:52.252Z,2.90
2022-11-24T22:21:30.070Z,2.85
2022-11-24T22:23:57.886Z,2.53
2022-11-24T22:26:26.286Z,2.30
2022-11-24T22:28:58.169Z,2.45
2022-11-24T22:31:28.023Z,2.57
2022-11-24T22:33:57.060Z,2.20
2022-11-24T22:36:26.656Z,3.03
2022-11-24T22:38:59.240Z,2.60
2022-11-24T22:41:26.706Z,2.45
2022-11-24T22:43:54.276Z,2.70
2022-11-24T22:46:27.780Z,2.72
2022-11-24T22:48:57.728Z,2.42
2022-11-24T22:51:33.762Z,2.67
2022-11-24T22:54:03.749Z,2.87
2022-11-24T22:56:34.771Z,2.43
2022-11-24T22:59:03.184Z,2.50
2022-11-24T23:01:31.977Z,2.35
2022-11-24T23:03:59.718Z,2.28
2022-11-24T23:06:30.035Z,2.50
2022-11-24T23:08:59.004Z,2.60
2022-11-24T23:11:34.926Z,2.88
2022-11-24T23:14:06.894Z,2.97
2022-11-24T23:16:34.470Z,3.38
2022-11-24T23:19:01.813Z,2.87
2022-11-24T23:21:31.890Z,2.75
2022-11-24T23:24:01.407Z,3.13
2022-11-24T23:26:31.446Z,2.70
2022-11-24T23:28:58.867Z,3.20
2022-11-24T23:31:30.542Z,2.80
2022-11-24T23:33:59.889Z,2.67
2022-11-24T23:36:28.456Z,2.55
2022-11-24T23:38:56.065Z,2.47
2022-11-24T23:41:25.880Z,2.63
2022-11-24T23:43:53.538Z,2.63
2022-11-24T23:46:23.522Z,2.45
2022-11-24T23:48:52.545Z,2.72
2022-11-24T23:51:22.481Z,2.63
2022-11-24T23:53:50.565Z,2.47
2022-11-24T23:56:20.726Z,2.33
2022-11-24T23:58:48.124Z,2.70
